createdAt,value
2023-03-03T00:01:58.906Z,2.10
2023-03-03T00:04:26.680Z,2.10
2023-03-03T00:06:53.687Z,2.20
2023-03-03T00:09:20.768Z,2.10
2023-03-03T00:11:52.626Z,2.10
2023-03-03T00:14:29.099Z,2.10
2023-03-03T00:16:57.150Z,2.20
2023-03-03T00:19:24.784Z,2.10
2023-03-03T00:21:57.041Z,2.10
2023-03-03T00:24:37.855Z,2.20
2023-03-03T00:27:38.324Z,2.10
2023-03-03T00:30:24.178Z,2.20
2023-03-03T00:32:52.897Z,2.20
2023-03-03T00:35:30.234Z,2.20
2023-03-03T00:37:59.846Z,2.20
2023-03-03T00:40:38.460Z,2.20
2023-03-03T00:43:29.023Z,2.20
2023-03-03T00:45:58.809Z,2.30
2023-03-03T00:48:38.111Z,2.30
2023-03-03T00:51:23.487Z,2.30
2023-03-03T00:53:51.093Z,2.30
2023-03-03T00:56:18.318Z,2.30
2023-03-03T00:58:48.356Z,2.20
2023-03-03T01:01:16.875Z,2.20
2023-03-03T01:03:44.750Z,2.30
2023-03-03T01:06:12.933Z,2.30
2023-03-03T01:08:40.111Z,2.30
2023-03-03T01:11:14.098Z,2.30
2023-03-03T01:13:43.378Z,2.20
2023-03-03T01:16:10.726Z,2.30
2023-03-03T01:18:38.181Z,2.30
2023-03-03T01:21:05.808Z,2.20
2023-03-03T01:23:33.089Z,2.20
2023-03-03T01:26:00.317Z,2.10
2023-03-03T01:28:27.514Z,2.10
2023-03-03T01:30:55.102Z,2.10
2023-03-03T01:33:22.338Z,2.10
2023-03-03T01:35:49.313Z,2.10
2023-03-03T01:38:16.766Z,2.10
2023-03-03T01:40:43.806Z,2.10
2023-03-03T01:43:15.429Z,2.00
2023-03-03T01:45:48.574Z,2.10
2023-03-03T01:48:23.007Z,2.10
2023-03-03T01:50:58.947Z,2.10
2023-03-03T01:53:33.626Z,2.00
2023-03-03T01:56:01.945Z,1.90
2023-03-03T01:58:45.698Z,1.90
2023-03-03T02:01:17.675Z,1.90
2023-03-03T02:03:45.292Z,1.80
2023-03-03T02:06:16.514Z,1.80
2023-03-03T02:08:59.572Z,1.70
2023-03-03T02:11:29.767Z,1.70
2023-03-03T02:13:56.947Z,1.60
2023-03-03T02:16:24.113Z,1.60
2023-03-03T02:18:51.246Z,1.50
2023-03-03T02:21:21.110Z,1.50
2023-03-03T02:24:05.330Z,1.50
2023-03-03T02:26:36.904Z,1.50
2023-03-03T02:29:04.332Z,1.50
2023-03-03T02:31:32.254Z,1.40
2023-03-03T02:33:59.709Z,1.40
2023-03-03T02:36:32.128Z,1.30
2023-03-03T02:39:19.229Z,1.30
2023-03-03T02:42:08.342Z,1.40
2023-03-03T02:44:36.403Z,1.30
2023-03-03T02:47:03.405Z,1.30
2023-03-03T02:49:32.957Z,1.40
2023-03-03T02:52:01.463Z,1.30
2023-03-03T02:54:30.979Z,1.30
2023-03-03T02:56:58.948Z,1.40
2023-03-03T02:59:26.462Z,1.40
2023-03-03T03:01:54.063Z,1.40
2023-03-03T03:04:26.131Z,1.40
2023-03-03T03:06:54.328Z,1.40
2023-03-03T03:09:25.061Z,1.40
2023-03-03T03:11:52.485Z,1.40
2023-03-03T03:14:19.741Z,1.40
2023-03-03T03:16:47.206Z,1.40
2023-03-03T03:19:14.848Z,1.50
2023-03-03T03:21:41.817Z,1.50
2023-03-03T03:24:08.887Z,1.50
2023-03-03T03:26:35.885Z,1.50
2023-03-03T03:29:02.899Z,1.50
2023-03-03T03:31:30.231Z,1.60
2023-03-03T03:34:00.288Z,1.60
2023-03-03T03:36:28.415Z,1.60
2023-03-03T03:38:55.600Z,1.60
2023-03-03T03:41:22.749Z,1.60
2023-03-03T03:43:49.835Z,1.50
2023-03-03T03:46:16.858Z,1.60
2023-03-03T03:48:43.938Z,1.50
2023-03-03T03:51:12.653Z,1.50
2023-03-03T03:53:39.732Z,1.50
2023-03-03T03:56:07.201Z,1.50
2023-03-03T03:58:34.569Z,1.50
2023-03-03T04:01:06.729Z,1.60
2023-03-03T04:03:34.745Z,1.60
2023-03-03T04:06:02.041Z,1.70
2023-03-03T04:08:29.184Z,1.80
2023-03-03T04:10:56.286Z,1.70
2023-03-03T04:13:23.392Z,1.60
2023-03-03T04:15:50.431Z,1.60
2023-03-03T04:18:17.439Z,1.60
2023-03-03T04:20:44.492Z,1.60
2023-03-03T04:23:11.601Z,1.60
2023-03-03T04:25:38.695Z,1.50
2023-03-03T04:28:06.336Z,1.50
2023-03-03T04:30:33.515Z,1.50
2023-03-03T04:33:00.435Z,1.50
2023-03-03T04:35:27.526Z,1.60
2023-03-03T04:37:54.715Z,1.60
2023-03-03T04:40:21.796Z,1.60
2023-03-03T04:42:49.142Z,1.70
2023-03-03T04:45:16.236Z,1.70
2023-03-03T04:47:43.885Z,1.70
2023-03-03T04:50:11.747Z,1.70
2023-03-03T04:52:39.056Z,1.80
2023-03-03T04:55:08.298Z,1.80
2023-03-03T04:57:37.270Z,1.80
2023-03-03T05:00:06.682Z,1.80
2023-03-03T05:02:33.914Z,1.80
2023-03-03T05:05:01.208Z,1.90
2023-03-03T05:07:28.340Z,1.90
2023-03-03T05:09:55.354Z,2.00
2023-03-03T05:12:22.322Z,1.90
2023-03-03T05:14:49.311Z,1.90
2023-03-03T05:17:16.458Z,1.90
2023-03-03T05:19:43.480Z,1.90
2023-03-03T05:22:10.521Z,1.90
2023-03-03T05:24:37.641Z,1.90
2023-03-03T05:27:05.028Z,1.80
2023-03-03T05:29:33.536Z,1.80
2023-03-03T05:32:00.897Z,1.80
2023-03-03T05:34:27.929Z,1.80
2023-03-03T05:36:54.857Z,1.80
2023-03-03T05:39:21.798Z,1.80
2023-03-03T05:41:49.240Z,1.90
2023-03-03T05:44:16.607Z,1.90
2023-03-03T05:46:43.933Z,2.00
2023-03-03T05:49:11.092Z,1.90
2023-03-03T05:51:38.093Z,1.80
2023-03-03T05:54:05.290Z,1.80
2023-03-03T05:56:32.437Z,1.90
2023-03-03T05:58:59.479Z,1.90
2023-03-03T06:01:27.560Z,1.80
2023-03-03T06:03:54.836Z,1.80
2023-03-03T06:06:21.771Z,1.80
2023-03-03T06:08:49.001Z,1.80
2023-03-03T06:11:18.627Z,1.80
2023-03-03T06:13:45.913Z,1.80
2023-03-03T06:16:13.367Z,1.90
2023-03-03T06:18:40.723Z,1.90
2023-03-03T06:21:07.913Z,1.90
2023-03-03T06:23:35.079Z,2.00
2023-03-03T06:26:02.272Z,2.10
2023-03-03T06:28:29.470Z,2.10
2023-03-03T06:30:56.854Z,2.10
2023-03-03T06:33:24.600Z,2.10
2023-03-03T06:35:53.039Z,2.10
2023-03-03T06:38:20.616Z,2.10
2023-03-03T06:40:47.941Z,2.00
2023-03-03T06:43:15.280Z,2.10
2023-03-03T06:45:43.526Z,2.20
2023-03-03T06:48:10.497Z,2.30
2023-03-03T06:50:39.314Z,2.30
2023-03-03T06:53:15.443Z,2.20
2023-03-03T06:55:44.941Z,2.30
2023-03-03T06:58:18.038Z,2.20
2023-03-03T07:00:50.884Z,2.30
2023-03-03T07:03:21.929Z,2.40
2023-03-03T07:05:49.611Z,2.40
2023-03-03T07:08:19.211Z,2.50
2023-03-03T07:10:47.431Z,2.50
2023-03-03T07:13:26.436Z,2.60
2023-03-03T07:15:54.896Z,2.60
2023-03-03T07:18:44.567Z,2.70
2023-03-03T07:21:21.966Z,2.70
2023-03-03T07:23:52.031Z,2.70
2023-03-03T07:26:30.866Z,2.70
2023-03-03T07:29:01.325Z,2.80
2023-03-03T07:31:37.663Z,2.80
2023-03-03T07:34:25.505Z,2.80
2023-03-03T07:37:00.117Z,2.90
2023-03-03T07:39:40.157Z,3.00
2023-03-03T07:42:29.612Z,3.00
2023-03-03T07:45:00.783Z,3.00
2023-03-03T07:47:35.086Z,3.10
2023-03-03T07:50:14.421Z,3.20
2023-03-03T07:52:43.662Z,3.20
2023-03-03T07:55:19.822Z,3.30
2023-03-03T07:57:46.985Z,3.40
2023-03-03T08:00:16.871Z,3.50
2023-03-03T08:03:00.737Z,3.60
2023-03-03T08:05:35.911Z,3.70
2023-03-03T08:08:32.219Z,3.80
2023-03-03T08:11:01.754Z,3.80
2023-03-03T08:13:29.727Z,3.90
2023-03-03T08:16:18.329Z,4.00
2023-03-03T08:18:53.483Z,4.10
2023-03-03T08:21:21.839Z,4.20
2023-03-03T08:23:51.619Z,4.20
2023-03-03T08:26:22.340Z,4.30
2023-03-03T08:28:49.804Z,4.40
2023-03-03T08:31:34.390Z,4.50
2023-03-03T08:34:07.349Z,4.50
2023-03-03T08:36:34.923Z,4.60
2023-03-03T08:39:03.284Z,4.70
2023-03-03T08:41:30.426Z,4.90
2023-03-03T08:43:57.747Z,5.00
2023-03-03T08:46:24.850Z,5.00
2023-03-03T08:48:52.803Z,5.20
2023-03-03T08:51:19.844Z,5.20
2023-03-03T08:53:47.550Z,5.40
2023-03-03T08:56:14.546Z,5.50
2023-03-03T08:59:01.288Z,5.60
2023-03-03T09:01:30.513Z,5.60
2023-03-03T09:03:57.750Z,5.80
2023-03-03T09:06:24.976Z,5.90
2023-03-03T09:08:51.956Z,5.90
2023-03-03T09:11:27.812Z,6.00
2023-03-03T09:14:02.881Z,6.20
2023-03-03T09:16:37.315Z,6.30
2023-03-03T09:19:20.350Z,6.40
2023-03-03T09:21:47.377Z,6.60
2023-03-03T09:24:26.768Z,6.80
2023-03-03T09:26:54.962Z,6.90
2023-03-03T09:29:37.411Z,6.90
2023-03-03T09:32:43.064Z,6.90
2023-03-03T09:35:28.196Z,7.00
2023-03-03T09:37:55.313Z,7.10
2023-03-03T09:41:01.441Z,7.20
2023-03-03T09:43:54.881Z,7.20
2023-03-03T09:46:40.775Z,7.30
2023-03-03T09:49:26.614Z,7.40
2023-03-03T09:52:13.339Z,7.60
2023-03-03T09:54:54.249Z,7.50
2023-03-03T09:57:42.403Z,7.40
2023-03-03T10:00:40.854Z,7.40
2023-03-03T10:03:42.368Z,7.60
2023-03-03T10:06:32.112Z,7.80
2023-03-03T10:09:06.471Z,7.80
2023-03-03T10:11:55.070Z,7.80
2023-03-03T10:14:50.770Z,7.90
2023-03-03T10:17:46.533Z,8.20
2023-03-03T10:20:49.679Z,8.50
2023-03-03T10:23:40.863Z,8.70
2023-03-03T10:26:45.828Z,8.70
2023-03-03T10:29:25.482Z,8.60
2023-03-03T10:32:09.433Z,8.90
2023-03-03T10:34:50.201Z,9.30
2023-03-03T10:37:29.197Z,9.60
2023-03-03T10:40:22.641Z,9.70
2023-03-03T10:43:00.218Z,9.50
2023-03-03T10:45:58.098Z,9.50
2023-03-03T10:48:49.968Z,9.70
2023-03-03T10:51:26.703Z,9.80
2023-03-03T10:54:10.545Z,8.90
2023-03-03T10:57:03.132Z,8.60
2023-03-03T10:59:55.236Z,8.30
2023-03-03T11:02:36.400Z,8.40
2023-03-03T11:05:03.543Z,8.20
2023-03-03T11:07:52.305Z,8.60
2023-03-03T11:10:31.658Z,8.90
2023-03-03T11:13:27.371Z,9.00
2023-03-03T11:16:35.504Z,9.50
2023-03-03T11:19:40.102Z,10.20
2023-03-03T11:22:19.056Z,10.30
2023-03-03T11:24:57.469Z,10.40
2023-03-03T11:27:29.542Z,10.60
2023-03-03T11:30:30.050Z,10.90
2023-03-03T11:33:36.193Z,11.10
2023-03-03T11:36:16.667Z,11.40
2023-03-03T11:39:00.134Z,11.40
2023-03-03T11:41:39.701Z,11.30
2023-03-03T11:44:29.265Z,11.10
2023-03-03T11:47:02.825Z,10.50
2023-03-03T11:49:40.483Z,10.80
2023-03-03T11:52:18.489Z,11.10
2023-03-03T11:54:48.455Z,11.30
2023-03-03T11:57:21.342Z,11.10
2023-03-03T12:00:17.026Z,11.40
2023-03-03T12:02:48.507Z,11.80
2023-03-03T12:05:32.196Z,11.90
2023-03-03T12:08:05.069Z,11.90
2023-03-03T12:10:36.521Z,12.00
2023-03-03T12:13:11.358Z,11.90
2023-03-03T12:16:11.403Z,11.80
2023-03-03T12:19:11.906Z,11.80
2023-03-03T12:21:54.503Z,11.90
2023-03-03T12:24:29.141Z,12.20
2023-03-03T12:27:17.381Z,12.10
2023-03-03T12:30:10.684Z,11.60
2023-03-03T12:32:37.668Z,11.50
2023-03-03T12:35:26.909Z,11.60
2023-03-03T12:38:10.833Z,11.80
2023-03-03T12:41:08.765Z,11.10
2023-03-03T12:44:03.036Z,11.10
2023-03-03T12:46:56.837Z,11.20
2023-03-03T12:49:48.085Z,11.10
2023-03-03T12:52:43.480Z,11.30
2023-03-03T12:55:35.454Z,10.60
2023-03-03T12:58:25.797Z,10.70
2023-03-03T13:01:21.940Z,10.90
2023-03-03T13:04:11.804Z,10.80
2023-03-03T13:06:52.589Z,10.50
2023-03-03T13:09:29.151Z,10.20
2023-03-03T13:12:13.220Z,9.90
2023-03-03T13:14:55.102Z,9.90
2023-03-03T13:17:31.217Z,10.40
2023-03-03T13:20:18.844Z,10.50
2023-03-03T13:23:04.258Z,10.70
2023-03-03T13:25:49.606Z,11.00
2023-03-03T13:28:31.675Z,11.20
2023-03-03T13:31:12.312Z,11.20
2023-03-03T13:33:43.352Z,11.30
2023-03-03T13:36:13.773Z,11.50
2023-03-03T13:38:57.671Z,11.20
2023-03-03T13:41:52.397Z,11.30
2023-03-03T13:44:39.044Z,11.30
2023-03-03T13:47:28.221Z,11.20
2023-03-03T13:50:20.129Z,10.90
2023-03-03T13:52:58.162Z,10.60
2023-03-03T13:55:32.626Z,10.50
2023-03-03T13:58:04.110Z,10.60
2023-03-03T14:00:46.617Z,10.60
2023-03-03T14:03:32.500Z,10.60
2023-03-03T14:06:22.485Z,10.50
2023-03-03T14:09:04.503Z,10.30
2023-03-03T14:11:48.654Z,10.20
2023-03-03T14:14:41.561Z,10.10
2023-03-03T14:17:12.136Z,10.10
2023-03-03T14:19:52.189Z,10.20
2023-03-03T14:22:26.274Z,10.40
2023-03-03T14:25:06.191Z,10.50
2023-03-03T14:27:48.469Z,10.70
2023-03-03T14:30:39.484Z,10.90
2023-03-03T14:33:12.279Z,11.30
2023-03-03T14:35:49.029Z,11.20
2023-03-03T14:38:23.784Z,10.90
2023-03-03T14:41:13.085Z,10.80
2023-03-03T14:43:46.646Z,10.60
2023-03-03T14:46:36.274Z,10.70
2023-03-03T14:49:07.454Z,10.90
2023-03-03T14:51:46.180Z,10.10
2023-03-03T14:54:30.374Z,10.20
2023-03-03T14:57:15.325Z,10.20
2023-03-03T15:00:06.687Z,10.10
2023-03-03T15:02:59.960Z,10.10
2023-03-03T15:05:29.942Z,10.20
2023-03-03T15:08:23.692Z,10.10
2023-03-03T15:10:51.087Z,10.30
2023-03-03T15:13:21.172Z,10.10
2023-03-03T15:16:00.423Z,9.90
2023-03-03T15:18:28.739Z,9.90
2023-03-03T15:21:19.061Z,9.80
2023-03-03T15:24:15.096Z,9.90
2023-03-03T15:26:54.677Z,10.10
2023-03-03T15:29:36.885Z,10.30
2023-03-03T15:32:06.929Z,10.30
2023-03-03T15:34:41.648Z,10.40
2023-03-03T15:37:39.647Z,10.30
2023-03-03T15:40:27.303Z,10.70
2023-03-03T15:43:28.039Z,10.90
2023-03-03T15:46:15.937Z,11.10
2023-03-03T15:49:12.973Z,11.30
2023-03-03T15:52:02.806Z,11.40
2023-03-03T15:54:51.400Z,11.30
2023-03-03T15:57:47.067Z,10.80
2023-03-03T16:00:35.936Z,10.50
2023-03-03T16:03:21.836Z,10.40
2023-03-03T16:06:04.044Z,10.10
2023-03-03T16:08:44.085Z,10.10
2023-03-03T16:11:28.583Z,10.00
2023-03-03T16:14:19.582Z,10.10
2023-03-03T16:16:52.250Z,10.20
2023-03-03T16:19:41.289Z,10.30
2023-03-03T16:22:20.079Z,10.30
2023-03-03T16:25:39.294Z,10.40
2023-03-03T16:28:39.279Z,10.50
2023-03-03T16:31:32.565Z,10.60
2023-03-03T16:34:17.710Z,10.60
2023-03-03T16:37:19.935Z,10.60
2023-03-03T16:39:56.957Z,10.40
2023-03-03T16:42:31.249Z,10.20
2023-03-03T16:45:24.876Z,9.80
2023-03-03T16:47:58.407Z,9.60
2023-03-03T16:50:26.422Z,9.60
2023-03-03T16:53:04.025Z,9.50
2023-03-03T16:55:59.323Z,9.30
2023-03-03T16:58:54.413Z,9.20
2023-03-03T17:01:52.635Z,9.20
2023-03-03T17:04:31.432Z,9.00
2023-03-03T17:07:22.541Z,8.90
2023-03-03T17:10:12.004Z,8.90
2023-03-03T17:12:54.164Z,8.90
2023-03-03T17:15:33.360Z,8.80
2023-03-03T17:18:10.973Z,8.80
2023-03-03T17:20:47.105Z,8.70
2023-03-03T17:23:29.228Z,8.50
2023-03-03T17:26:20.718Z,8.50
2023-03-03T17:29:07.352Z,8.40
2023-03-03T17:32:02.480Z,8.20
2023-03-03T17:34:59.664Z,8.00
2023-03-03T17:37:45.613Z,8.00
2023-03-03T17:40:45.254Z,7.80
2023-03-03T17:43:37.039Z,7.70
2023-03-03T17:46:14.747Z,7.60
2023-03-03T17:49:19.283Z,7.60
2023-03-03T17:52:21.411Z,7.50
2023-03-03T17:55:10.188Z,7.40
2023-03-03T17:57:49.100Z,7.30
2023-03-03T18:00:47.574Z,7.20
2023-03-03T18:03:41.582Z,7.10
2023-03-03T18:06:34.925Z,7.00
2023-03-03T18:09:14.490Z,7.00
2023-03-03T18:11:44.515Z,6.90
2023-03-03T18:14:19.354Z,6.90
2023-03-03T18:17:12.746Z,6.70
2023-03-03T18:19:49.014Z,6.70
2023-03-03T18:22:43.848Z,6.60
2023-03-03T18:25:13.293Z,6.50
2023-03-03T18:28:01.771Z,6.40
2023-03-03T18:30:32.941Z,6.30
2023-03-03T18:33:07.174Z,6.20
2023-03-03T18:35:45.080Z,6.20
2023-03-03T18:38:17.927Z,6.30
2023-03-03T18:41:08.964Z,6.30
2023-03-03T18:43:52.462Z,6.10
2023-03-03T18:46:25.194Z,6.00
2023-03-03T18:49:07.457Z,6.00
2023-03-03T18:51:34.647Z,5.90
2023-03-03T18:54:13.774Z,5.80
2023-03-03T18:56:57.866Z,5.60
2023-03-03T18:59:30.805Z,5.60
2023-03-03T19:02:24.183Z,5.50
2023-03-03T19:05:26.632Z,5.30
2023-03-03T19:08:17.926Z,5.30
2023-03-03T19:11:01.439Z,5.30
2023-03-03T19:13:35.125Z,5.30
2023-03-03T19:16:06.552Z,5.30
2023-03-03T19:18:56.251Z,5.20
2023-03-03T19:21:34.150Z,5.20
2023-03-03T19:24:01.118Z,5.10
2023-03-03T19:26:29.252Z,5.00
2023-03-03T19:28:59.407Z,4.90
2023-03-03T19:31:42.224Z,4.80
2023-03-03T19:34:40.099Z,4.60
2023-03-03T19:37:36.684Z,4.50
2023-03-03T19:40:35.339Z,4.50
2023-03-03T19:43:30.762Z,4.40
2023-03-03T19:46:16.413Z,4.30
2023-03-03T19:49:04.446Z,4.20
2023-03-03T19:51:43.488Z,4.20
2023-03-03T19:54:41.069Z,4.20
2023-03-03T19:57:19.892Z,4.20
2023-03-03T20:00:20.691Z,4.10
2023-03-03T20:03:19.323Z,4.10
2023-03-03T20:06:03.373Z,4.00
2023-03-03T20:08:41.470Z,4.00
2023-03-03T20:11:37.553Z,4.00
2023-03-03T20:14:32.680Z,3.90
2023-03-03T20:17:15.254Z,3.90
2023-03-03T20:20:07.074Z,3.80
2023-03-03T20:22:43.857Z,3.70
2023-03-03T20:25:19.854Z,3.60
2023-03-03T20:27:54.915Z,3.50
2023-03-03T20:30:52.524Z,3.50
2023-03-03T20:33:22.633Z,3.40
2023-03-03T20:36:16.826Z,3.40
2023-03-03T20:38:52.251Z,3.40
2023-03-03T20:41:46.560Z,3.40
2023-03-03T20:44:39.814Z,3.30
2023-03-03T20:47:18.010Z,3.30
2023-03-03T20:50:03.633Z,3.20
2023-03-03T20:52:48.434Z,3.20
2023-03-03T20:55:38.220Z,3.10
2023-03-03T20:58:40.888Z,3.00
2023-03-03T21:01:15.513Z,2.90
2023-03-03T21:03:43.554Z,2.90
2023-03-03T21:06:18.053Z,2.90
2023-03-03T21:08:49.775Z,2.90
2023-03-03T21:11:20.395Z,2.90
2023-03-03T21:13:54.099Z,2.90
2023-03-03T21:16:21.269Z,2.80
2023-03-03T21:19:03.111Z,2.70
2023-03-03T21:21:42.173Z,2.70
2023-03-03T21:24:19.729Z,2.70
2023-03-03T21:26:59.574Z,2.70
2023-03-03T21:29:30.857Z,2.80
2023-03-03T21:32:00.410Z,2.80
2023-03-03T21:34:39.817Z,2.80
2023-03-03T21:37:12.924Z,2.70
2023-03-03T21:39:45.931Z,2.70
2023-03-03T21:42:20.725Z,2.70
2023-03-03T21:44:50.233Z,2.70
2023-03-03T21:47:20.080Z,2.60
2023-03-03T21:49:50.038Z,2.50
2023-03-03T21:52:19.188Z,2.40
2023-03-03T21:54:47.961Z,2.30
2023-03-03T21:57:15.305Z,2.20
2023-03-03T21:59:42.802Z,2.20
2023-03-03T22:02:10.410Z,2.10
2023-03-03T22:04:41.067Z,2.10
2023-03-03T22:07:09.049Z,2.20
2023-03-03T22:09:36.966Z,2.10
2023-03-03T22:12:04.920Z,2.00
2023-03-03T22:14:31.962Z,1.90
2023-03-03T22:16:59.355Z,1.90
2023-03-03T22:19:26.504Z,1.90
2023-03-03T22:21:53.588Z,1.90
2023-03-03T22:24:20.758Z,1.90
2023-03-03T22:26:47.760Z,1.90
2023-03-03T22:29:17.165Z,1.80
2023-03-03T22:31:44.256Z,1.80
2023-03-03T22:34:11.452Z,1.80
2023-03-03T22:36:38.489Z,1.80
2023-03-03T22:39:05.608Z,1.70
2023-03-03T22:41:33.160Z,1.70
2023-03-03T22:44:00.884Z,1.60
2023-03-03T22:46:28.094Z,1.60
2023-03-03T22:48:55.108Z,1.60
2023-03-03T22:51:22.352Z,1.60
2023-03-03T22:53:49.567Z,1.60
2023-03-03T22:56:16.596Z,1.50
2023-03-03T22:58:43.564Z,1.40
2023-03-03T23:01:10.578Z,1.40
2023-03-03T23:03:38.498Z,1.40
2023-03-03T23:06:06.340Z,1.40
2023-03-03T23:08:33.469Z,1.50
2023-03-03T23:11:02.997Z,1.50
2023-03-03T23:13:30.375Z,1.50
2023-03-03T23:16:00.250Z,1.50
2023-03-03T23:18:28.380Z,1.50
2023-03-03T23:20:56.132Z,1.40
2023-03-03T23:23:23.374Z,1.30
2023-03-03T23:25:50.502Z,1.40
2023-03-03T23:28:19.257Z,1.30
2023-03-03T23:30:46.492Z,1.20
2023-03-03T23:33:13.684Z,1.20
2023-03-03T23:35:41.058Z,1.20
2023-03-03T23:38:08.504Z,1.10
2023-03-03T23:40:35.542Z,1.20
2023-03-03T23:43:02.702Z,1.10
2023-03-03T23:45:29.816Z,1.10
2023-03-03T23:47:56.969Z,1.00
2023-03-03T23:50:23.966Z,1.10
2023-03-03T23:52:51.015Z,1.00
2023-03-03T23:55:18.216Z,1.00
2023-03-03T23:57:45.276Z,1.00
